Accueil
METAR-TAF:

METAR-TAF

Aéroports :

Aéroport international Jean-Lesage de Québec

Québec, Québec, Canada

latitude: 46-48N, longitude: 071-23W, altitude: 70 m

Observation

Le bulletin a été fait il y a 20 minutes, à 03:00 UTC
Vent calme
Température 16°C
Humidité 94%
Pression 1015 hPa
Visibilité: 24.1 km
Nuages épars à une hauteur de 6000 ft

METAR: CYQB 190300Z 00000KT 15SM SCT060 16/15 A2998 RMK SC3 SLP156 DENSITY ALT 300FT

Heure: 23:20 (03:20 UTC)

Prévision

Le bulletin a été fait il y a 3 heures et 42 minutes, à 23:38 UTC
Prévision valable du 19 à 00 UTC au 19 à 24 UTC
Vent 8 kt de est/nord-est
Visibilité: 10 km
Quelques nuages à une hauteur de 4000 ft

TAF: CYQB 182338Z 1900/1924 07008KT P6SM FEW040 RMK NXT FCST BY 190600Z

Observations et prévisions météorologiques de plus de 4000 aéroports (messages METAR et TAF).

Les stations disponibles sont représentées par des disques jaunes et rouges sur la carte.

Passer la souris dessus pour voir le nom de la station.

Cliquer dessus pour voir les observations et prévisions météorologiques.

Pour changer de carte: cliquez sur les boutons verts avec une croix noire pour zoomer, sur le bouton vert avec un tiret pour effectuer un zoom arrière, ou sur les flèches vertes pour les cartes adjacentes.


METAR-TAF: